Time;durP1;ratioP1;P1;durP2;ratioP2;P2;SDS_P1;SDS_P2;PMS_P1;PMS_P2;Temp;Humidity;BMP_temperature;BMP_pressure;BME280_temperature;BME280_humidity;BME280_pressure;Samples;Min_cycle;Max_cycle;Signal;HPM_P1;HPM_P2
2022/11/10 00:00:57;;;;;;;18.13;6.28;;;9.10;99.90;;;;;;5059106;28;20072;-61
2022/11/10 00:03:23;;;;;;;15.52;4.60;;;9.10;99.90;;;;;;5062788;28;20075;-61
2022/11/10 00:05:49;;;;;;;20.15;6.13;;;9.10;99.90;;;;;;5063051;28;20458;-62
2022/11/10 00:08:14;;;;;;;16.67;5.35;;;9.10;99.90;;;;;;5057443;28;20086;-60
2022/11/10 00:11:00;;;;;;;23.40;6.03;;;9.00;99.90;;;;;;5059290;28;20458;-62
2022/11/10 00:16:59;;;;;;;17.98;5.07;;;9.00;99.90;;;;;;5063594;28;20067;-60
2022/11/10 00:19:06;;;;;;;16.77;5.20;;;9.10;99.90;;;;;;5060448;28;20501;-61
2022/11/10 00:21:32;;;;;;;16.35;5.75;;;9.00;99.90;;;;;;5059925;28;20151;-61
2022/11/10 00:23:57;;;;;;;18.30;5.50;;;9.00;99.90;;;;;;5064599;28;20044;-57
2022/11/10 00:26:23;;;;;;;21.80;5.32;;;9.00;99.90;;;;;;5066262;28;20093;-60
2022/11/10 00:28:48;;;;;;;21.88;5.40;;;9.00;99.90;;;;;;5060489;28;20391;-62
2022/11/10 00:31:14;;;;;;;19.85;5.53;;;9.00;99.90;;;;;;5062584;28;20362;-61
2022/11/10 00:33:42;;;;;;;17.08;5.10;;;9.00;99.90;;;;;;5059723;28;20086;-60
2022/11/10 00:36:08;;;;;;;18.60;5.13;;;9.00;99.90;;;;;;5062820;28;20040;-61
2022/11/10 00:38:34;;;;;;;20.67;5.80;;;9.00;99.90;;;;;;5057531;28;20032;-61
2022/11/10 00:41:00;;;;;;;15.73;5.68;;;9.00;99.90;;;;;;5059577;28;20070;-61
2022/11/10 00:43:27;;;;;;;23.67;6.13;;;9.00;99.90;;;;;;5061852;28;20043;-61
2022/11/10 00:45:52;;;;;;;15.45;5.45;;;8.90;99.90;;;;;;5061491;28;20451;-59
2022/11/10 00:48:18;;;;;;;20.48;5.25;;;8.90;99.90;;;;;;5060084;28;20051;-62
2022/11/10 00:50:43;;;;;;;13.77;5.50;;;8.90;99.90;;;;;;5063785;28;20174;-60
2022/11/10 00:53:09;;;;;;;15.30;5.35;;;8.90;99.90;;;;;;5063393;28;20036;-62
2022/11/10 00:55:39;;;;;;;23.60;6.22;;;8.90;99.90;;;;;;5058261;28;20505;-61
2022/11/10 00:58:05;;;;;;;19.30;5.50;;;8.80;99.90;;;;;;5062875;28;20473;-61
2022/11/10 01:00:30;;;;;;;24.90;6.10;;;8.80;99.90;;;;;;5065704;28;20036;-61
2022/11/10 01:02:56;;;;;;;21.33;6.03;;;8.80;99.90;;;;;;5059542;28;20048;-60
2022/11/10 01:05:22;;;;;;;22.13;6.75;;;8.80;99.90;;;;;;5064198;28;20032;-61
2022/11/10 01:07:47;;;;;;;16.23;6.07;;;8.80;99.90;;;;;;5065023;28;20119;-60
2022/11/10 01:10:13;;;;;;;25.10;6.65;;;8.80;99.90;;;;;;5059918;28;20043;-61
2022/11/10 01:12:39;;;;;;;19.80;6.65;;;8.90;99.90;;;;;;5064294;28;20047;-59
2022/11/10 01:15:05;;;;;;;25.35;7.05;;;8.80;99.90;;;;;;5058639;28;20043;-59
2022/11/10 01:17:31;;;;;;;19.70;6.60;;;8.80;99.90;;;;;;5048169;28;20040;-62
2022/11/10 01:19:57;;;;;;;18.70;6.55;;;8.80;99.90;;;;;;5061200;28;20056;-60
2022/11/10 01:22:22;;;;;;;21.48;6.38;;;8.80;99.90;;;;;;5058194;28;20052;-60
2022/11/10 01:24:48;;;;;;;18.80;6.47;;;8.80;99.90;;;;;;5058732;28;20037;-61
2022/11/10 01:27:14;;;;;;;20.67;6.55;;;8.80;99.90;;;;;;5062427;28;20045;-56
2022/11/10 01:29:39;;;;;;;24.55;6.78;;;8.80;99.90;;;;;;5063094;28;20032;-61
2022/11/10 01:32:05;;;;;;;17.90;7.00;;;8.80;99.90;;;;;;5058746;28;20384;-59
2022/11/10 01:34:31;;;;;;;21.80;6.75;;;8.80;99.90;;;;;;5065605;28;20036;-61
2022/11/10 01:36:56;;;;;;;24.08;6.80;;;8.80;99.90;;;;;;5062681;28;20044;-60
2022/11/10 01:39:22;;;;;;;18.73;7.28;;;8.80;99.90;;;;;;5064959;28;20151;-61
2022/11/10 01:41:47;;;;;;;23.80;6.40;;;8.80;99.90;;;;;;5065920;28;20056;-61
2022/11/10 01:44:18;;;;;;;19.40;6.65;;;8.70;99.90;;;;;;5061386;28;20923;-61
2022/11/10 01:46:44;;;;;;;23.52;7.32;;;8.70;99.90;;;;;;5056900;28;20062;-60
2022/11/10 01:49:12;;;;;;;27.08;7.15;;;8.70;99.90;;;;;;5063059;28;20045;-61
2022/11/10 01:51:40;;;;;;;;;;;8.70;99.90;;;;;;5074455;28;20040;-60
2022/11/10 01:54:13;;;;;;;24.00;7.40;;;8.70;99.90;;;;;;5065046;28;19925;-60
2022/11/10 01:56:47;;;;;;;23.63;7.18;;;8.70;99.90;;;;;;5063241;28;20174;-61
2022/11/10 01:59:17;;;;;;;22.23;7.03;;;8.60;99.90;;;;;;5062449;28;20047;-60
2022/11/10 02:01:46;;;;;;;23.23;7.47;;;8.70;99.90;;;;;;5061434;28;20184;-62
2022/11/10 02:04:15;;;;;;;22.65;7.28;;;8.60;99.90;;;;;;5061272;28;20154;-61
2022/11/10 02:06:42;;;;;;;22.85;6.90;;;8.60;99.90;;;;;;5060817;28;20395;-61
2022/11/10 02:09:08;;;;;;;24.15;8.10;;;8.70;99.90;;;;;;5063996;28;20049;-62
2022/11/10 02:11:36;;;;;;;22.58;6.85;;;8.60;99.90;;;;;;5059630;28;20044;-62
2022/11/10 02:14:02;;;;;;;26.93;7.70;;;8.60;99.90;;;;;;5062568;28;20119;-61
2022/11/10 02:16:28;;;;;;;21.90;7.68;;;8.60;99.90;;;;;;5060086;28;20287;-60
2022/11/10 02:18:54;;;;;;;28.38;8.10;;;8.60;99.90;;;;;;5060743;28;20048;-60
2022/11/10 02:21:20;;;;;;;22.45;8.30;;;8.70;99.90;;;;;;5056886;28;20213;-61
2022/11/10 02:23:48;;;;;;;26.05;8.52;;;8.70;99.90;;;;;;5063026;28;20158;-60
2022/11/10 02:26:18;;;;;;;22.70;7.97;;;8.60;99.90;;;;;;5060241;28;20060;-60
2022/11/10 02:28:44;;;;;;;21.80;7.72;;;8.70;99.90;;;;;;5061602;28;20161;-62
2022/11/10 02:31:09;;;;;;;22.50;8.55;;;8.60;99.90;;;;;;5064721;28;20461;-62
2022/11/10 02:33:35;;;;;;;27.45;8.60;;;8.70;99.90;;;;;;5068215;28;20037;-62
2022/11/10 02:36:01;;;;;;;22.80;9.07;;;8.70;99.90;;;;;;5064837;28;20120;-61
2022/11/10 02:38:27;;;;;;;24.88;9.60;;;8.80;99.90;;;;;;5059623;28;20127;-62
2022/11/10 02:40:52;;;;;;;28.15;10.10;;;8.80;99.90;;;;;;5057727;28;20658;-63
2022/11/10 02:43:18;;;;;;;30.48;9.93;;;8.80;99.90;;;;;;5061204;28;20047;-62
2022/11/10 02:45:45;;;;;;;26.52;10.27;;;8.80;99.90;;;;;;5057630;28;20045;-61
2022/11/10 02:48:12;;;;;;;25.27;9.35;;;8.80;99.90;;;;;;5059897;28;20044;-60
2022/11/10 02:50:38;;;;;;;19.90;10.05;;;8.80;99.90;;;;;;5055576;28;20037;-60
2022/11/10 02:53:04;;;;;;;26.50;10.35;;;8.90;99.90;;;;;;5065147;28;20447;-62
2022/11/10 02:55:30;;;;;;;28.92;10.27;;;8.90;99.90;;;;;;5062151;28;20041;-60
2022/11/10 02:57:55;;;;;;;25.05;10.35;;;8.90;99.90;;;;;;5052897;28;20509;-61
2022/11/10 03:00:21;;;;;;;31.13;11.38;;;8.90;99.90;;;;;;5055149;28;20080;-60
2022/11/10 03:02:47;;;;;;;26.95;10.60;;;8.90;99.90;;;;;;5061311;28;20109;-58
2022/11/10 03:05:12;;;;;;;26.13;11.07;;;8.90;99.90;;;;;;5062800;28;20048;-61
2022/11/10 03:07:38;;;;;;;27.50;11.45;;;8.90;99.90;;;;;;5059473;28;20542;-61
2022/11/10 03:10:05;;;;;;;26.73;11.00;;;8.90;99.90;;;;;;5063076;28;20036;-60
2022/11/10 03:12:31;;;;;;;37.03;12.23;;;9.00;99.90;;;;;;5056469;28;20041;-60
2022/11/10 03:14:56;;;;;;;26.35;10.95;;;9.00;99.90;;;;;;5062397;28;20302;-61
2022/11/10 03:17:22;;;;;;;25.63;11.65;;;9.00;99.90;;;;;;5060410;28;20087;-61
2022/11/10 03:19:48;;;;;;;29.48;11.73;;;9.00;99.90;;;;;;5059866;28;20479;-61
2022/11/10 03:22:13;;;;;;;27.65;11.02;;;9.00;99.90;;;;;;5059271;28;20040;-61
2022/11/10 03:24:39;;;;;;;33.15;12.80;;;9.00;99.90;;;;;;5059623;28;20094;-60
2022/11/10 03:27:05;;;;;;;35.15;11.85;;;9.00;99.90;;;;;;5058897;28;20040;-59
2022/11/10 03:29:30;;;;;;;35.20;12.60;;;9.00;99.90;;;;;;5058066;28;20171;-60
2022/11/10 03:31:56;;;;;;;28.73;12.60;;;9.00;99.90;;;;;;5057265;28;20097;-60
2022/11/10 03:34:21;;;;;;;39.75;12.77;;;9.00;99.90;;;;;;5060146;28;20036;-60
2022/11/10 03:36:47;;;;;;;35.83;12.73;;;9.00;99.90;;;;;;5060017;28;20044;-61
2022/11/10 03:39:13;;;;;;;31.15;12.40;;;8.90;99.90;;;;;;5062947;28;20416;-59
2022/11/10 03:41:38;;;;;;;34.80;13.05;;;8.90;99.90;;;;;;5058741;28;20501;-62
2022/11/10 03:44:04;;;;;;;30.75;12.25;;;8.90;99.90;;;;;;5059169;28;20525;-62
2022/11/10 03:46:30;;;;;;;30.15;13.15;;;8.90;99.90;;;;;;5059530;28;20087;-61
2022/11/10 03:48:55;;;;;;;32.72;13.25;;;8.90;99.90;;;;;;5058737;28;20400;-61
2022/11/10 03:51:21;;;;;;;31.10;13.77;;;8.90;99.90;;;;;;5055847;28;20045;-62
2022/11/10 03:53:47;;;;;;;36.97;15.85;;;8.90;99.90;;;;;;5058817;28;20041;-61
2022/11/10 03:56:13;;;;;;;32.45;14.00;;;8.90;99.90;;;;;;5056663;28;20575;-61
2022/11/10 03:58:39;;;;;;;38.88;15.98;;;8.90;99.90;;;;;;5059308;28;20037;-61
2022/11/10 04:01:05;;;;;;;33.28;16.25;;;9.00;99.90;;;;;;5055631;28;20048;-61
2022/11/10 04:03:30;;;;;;;37.22;16.20;;;9.00;99.90;;;;;;5063993;28;20032;-58
2022/11/10 04:08:58;;;;;;;42.58;18.38;;;8.90;99.90;;;;;;5057116;28;20436;-60
2022/11/10 04:16:53;;;;;;;34.03;18.00;;;8.90;99.90;;;;;;5059667;28;20040;-60
2022/11/10 04:19:19;;;;;;;37.47;17.73;;;8.90;99.90;;;;;;5061775;28;20037;-61
2022/11/10 04:21:44;;;;;;;37.30;17.67;;;9.00;99.90;;;;;;5060265;28;20043;-61
2022/11/10 04:24:10;;;;;;;37.03;17.95;;;9.00;99.90;;;;;;5060537;28;20043;-60
2022/11/10 04:26:37;;;;;;;39.33;17.52;;;9.10;99.90;;;;;;5056813;28;20107;-62
2022/11/10 04:29:07;;;;;;;42.42;18.33;;;9.00;99.90;;;;;;5061786;28;20481;-62
2022/11/10 04:31:36;;;;;;;34.60;17.50;;;9.00;99.90;;;;;;5057573;28;20059;-61
2022/11/10 04:34:12;;;;;;;42.88;18.60;;;9.00;99.90;;;;;;5058665;28;20089;-62
2022/11/10 04:36:40;;;;;;;40.45;16.88;;;9.10;99.90;;;;;;5056927;28;20040;-59
2022/11/10 04:39:07;;;;;;;33.40;17.00;;;9.00;99.90;;;;;;5057170;28;20052;-62
2022/11/10 04:41:34;;;;;;;44.65;18.33;;;9.10;99.90;;;;;;5058124;28;20044;-60
2022/11/10 04:44:01;;;;;;;37.50;18.33;;;9.10;99.90;;;;;;5059905;28;20525;-60
2022/11/10 04:46:35;;;;;;;42.45;20.20;;;9.00;99.90;;;;;;5064672;28;20348;-60
2022/11/10 04:49:03;;;;;;;40.95;18.88;;;9.10;99.90;;;;;;5063036;28;20131;-60
2022/11/10 04:51:34;;;;;;;40.42;19.25;;;9.10;99.90;;;;;;5065189;28;20060;-58
2022/11/10 04:54:01;;;;;;;39.83;19.15;;;9.20;99.90;;;;;;5053371;28;20029;-61
2022/11/10 04:56:27;;;;;;;38.50;19.75;;;9.20;99.90;;;;;;5063378;28;20032;-61
2022/11/10 04:58:53;;;;;;;38.95;18.55;;;9.30;99.90;;;;;;5061620;28;20630;-60
2022/11/10 05:01:21;;;;;;;43.05;18.92;;;9.20;99.90;;;;;;5060757;28;20127;-61
2022/11/10 05:03:48;;;;;;;38.97;19.40;;;9.20;99.90;;;;;;5062169;28;20063;-62
2022/11/10 05:06:14;;;;;;;39.17;19.48;;;9.20;99.90;;;;;;5060360;28;20049;-61
2022/11/10 05:08:41;;;;;;;42.05;19.13;;;9.20;99.90;;;;;;5065589;28;20051;-61
2022/11/10 05:11:10;;;;;;;33.92;18.17;;;9.20;99.90;;;;;;5063871;28;20044;-61
2022/11/10 05:13:36;;;;;;;34.42;18.58;;;9.30;99.90;;;;;;5064935;28;20033;-59
2022/11/10 05:16:02;;;;;;;34.92;18.38;;;9.20;99.90;;;;;;5064745;28;20037;-59
2022/11/10 05:18:27;;;;;;;41.90;19.35;;;9.30;99.90;;;;;;5062433;28;20492;-61
2022/11/10 05:20:53;;;;;;;40.05;18.02;;;9.30;99.90;;;;;;5062740;28;20041;-61
2022/11/10 05:23:38;;;;;;;44.05;19.13;;;9.30;99.90;;;;;;5061017;28;20618;-60
2022/11/10 05:26:08;;;;;;;34.13;18.33;;;9.30;99.90;;;;;;5061056;28;20154;-60
2022/11/10 05:28:34;;;;;;;39.58;19.50;;;9.20;99.90;;;;;;5065138;28;20486;-62
2022/11/10 05:31:00;;;;;;;33.13;17.80;;;9.20;99.90;;;;;;5061996;28;20119;-60
2022/11/10 05:33:25;;;;;;;37.70;17.27;;;9.30;99.90;;;;;;5060569;28;20164;-62
2022/11/10 05:35:51;;;;;;;37.22;17.92;;;9.30;99.90;;;;;;5063145;28;20090;-62
2022/11/10 05:38:17;;;;;;;43.13;18.73;;;9.20;99.90;;;;;;5061318;28;20044;-62
2022/11/10 05:40:43;;;;;;;37.13;18.67;;;9.20;99.90;;;;;;5057098;28;20040;-60
2022/11/10 05:43:09;;;;;;;36.05;17.42;;;9.30;99.90;;;;;;5057937;28;20041;-61
2022/11/10 05:45:35;;;;;;;39.53;17.90;;;9.20;99.90;;;;;;5062568;28;20045;-61
2022/11/10 05:48:02;;;;;;;36.85;17.92;;;9.20;99.90;;;;;;5057101;28;20143;-61
2022/11/10 05:50:28;;;;;;;38.03;17.00;;;9.30;99.90;;;;;;5059317;28;20124;-59
2022/11/10 05:52:54;;;;;;;32.58;17.15;;;9.20;99.90;;;;;;5056370;28;20052;-60
2022/11/10 05:55:23;;;;;;;39.50;16.88;;;9.30;99.90;;;;;;5060990;28;20044;-60
2022/11/10 05:57:50;;;;;;;40.58;16.48;;;9.20;99.90;;;;;;5060978;28;20489;-61
2022/11/10 06:00:20;;;;;;;37.95;15.98;;;9.20;99.90;;;;;;5060763;28;20037;-61
2022/11/10 06:02:55;;;;;;;29.20;15.15;;;9.20;99.90;;;;;;5061101;28;20110;-62
2022/11/10 06:05:21;;;;;;;32.95;15.50;;;9.30;99.90;;;;;;5062675;28;20048;-62
2022/11/10 06:07:47;;;;;;;31.02;14.93;;;9.20;99.90;;;;;;5058031;28;20051;-62
2022/11/10 06:10:12;;;;;;;31.05;15.48;;;9.20;99.90;;;;;;5063567;28;20048;-62
2022/11/10 06:12:38;;;;;;;31.45;14.82;;;9.20;99.90;;;;;;5053670;28;20045;-62
2022/11/10 06:15:04;;;;;;;27.13;14.63;;;9.30;99.90;;;;;;5059086;28;20505;-62
2022/11/10 06:17:30;;;;;;;37.88;15.48;;;9.30;99.90;;;;;;5061146;28;20039;-61
2022/11/10 06:19:55;;;;;;;34.85;15.50;;;9.20;99.90;;;;;;5063134;28;20033;-62
2022/11/10 06:22:21;;;;;;;32.33;14.25;;;9.30;99.90;;;;;;5059986;28;20045;-62
2022/11/10 06:24:47;;;;;;;31.67;14.27;;;9.30;99.90;;;;;;5058985;28;20452;-62
2022/11/10 06:27:12;;;;;;;36.05;14.77;;;9.20;99.90;;;;;;5063059;28;20123;-62
2022/11/10 06:29:38;;;;;;;31.85;14.70;;;9.30;99.90;;;;;;5055584;28;20033;-62
2022/11/10 06:32:03;;;;;;;28.23;12.75;;;9.30;99.90;;;;;;5065143;28;20028;-61
2022/11/10 06:34:29;;;;;;;32.33;14.00;;;9.30;99.90;;;;;;5061639;28;20054;-61
2022/11/10 06:36:54;;;;;;;35.95;14.02;;;9.20;99.90;;;;;;5060169;28;20131;-62
2022/11/10 06:39:20;;;;;;;30.50;13.27;;;9.30;99.90;;;;;;5060495;28;20047;-62
2022/11/10 06:41:46;;;;;;;36.42;14.55;;;9.20;99.90;;;;;;5070133;28;20042;-61
2022/11/10 06:44:11;;;;;;;31.85;13.73;;;9.20;99.90;;;;;;5048984;28;20033;-61
2022/11/10 06:46:37;;;;;;;32.22;13.60;;;9.20;99.90;;;;;;5063179;28;20098;-62
2022/11/10 06:49:03;;;;;;;28.23;13.93;;;9.10;99.90;;;;;;5060045;28;20127;-62
2022/11/10 06:51:29;;;;;;;31.80;14.00;;;9.10;99.90;;;;;;5060496;28;20535;-62
2022/11/10 06:53:54;;;;;;;37.03;13.93;;;9.10;99.90;;;;;;5058179;28;20041;-62
2022/11/10 06:56:20;;;;;;;33.45;15.88;;;9.20;99.90;;;;;;5062403;28;20045;-61
2022/11/10 06:58:46;;;;;;;32.50;14.60;;;9.20;99.90;;;;;;5061926;28;20036;-62
2022/11/10 07:01:11;;;;;;;33.45;15.05;;;9.20;99.90;;;;;;5061555;28;20072;-61
2022/11/10 07:03:37;;;;;;;38.65;15.45;;;9.20;99.90;;;;;;5063956;28;20037;-61
2022/11/10 07:06:02;;;;;;;35.80;14.77;;;9.10;99.90;;;;;;5060898;28;20082;-61
2022/11/10 07:08:28;;;;;;;33.45;14.30;;;9.10;99.90;;;;;;5061244;28;20032;-62
2022/11/10 07:10:54;;;;;;;35.78;14.52;;;9.10;99.90;;;;;;5062271;28;20040;-62
2022/11/10 07:13:21;;;;;;;30.30;14.00;;;9.10;99.90;;;;;;5062171;28;20041;-62
2022/11/10 07:15:47;;;;;;;29.70;15.95;;;9.00;99.90;;;;;;5061417;28;20127;-62
2022/11/10 07:18:13;;;;;;;33.90;15.88;;;9.10;99.90;;;;;;5059291;28;20043;-60
2022/11/10 07:20:38;;;;;;;34.80;15.55;;;9.10;99.90;;;;;;5057826;28;20455;-61
2022/11/10 07:23:06;;;;;;;33.08;15.23;;;9.10;99.90;;;;;;5058582;28;20045;-61
2022/11/10 07:25:34;;;;;;;28.17;14.95;;;9.10;99.90;;;;;;5059053;28;20072;-62
2022/11/10 07:28:03;;;;;;;33.03;16.10;;;9.20;99.90;;;;;;5056504;28;20040;-60
2022/11/10 07:30:30;;;;;;;36.35;16.83;;;9.30;99.90;;;;;;5058258;28;20769;-62
2022/11/10 07:33:00;;;;;;;31.50;16.77;;;9.30;99.90;;;;;;5062260;28;20040;-59
2022/11/10 07:35:28;;;;;;;38.28;17.35;;;9.40;99.90;;;;;;5060232;28;20302;-62
2022/11/10 07:37:55;;;;;;;34.90;18.15;;;9.50;99.90;;;;;;5054019;28;20686;-62
2022/11/10 07:40:21;;;;;;;35.80;17.75;;;9.60;99.90;;;;;;5056084;28;20068;-62
2022/11/10 07:42:47;;;;;;;37.63;17.90;;;9.70;99.90;;;;;;5059841;28;20157;-62
2022/11/10 07:45:12;;;;;;;36.00;16.80;;;9.80;99.90;;;;;;5066421;28;20040;-62
2022/11/10 07:47:38;;;;;;;35.17;17.05;;;9.90;99.90;;;;;;5062113;28;20064;-62
2022/11/10 07:50:05;;;;;;;32.83;17.35;;;10.00;99.90;;;;;;5059354;28;20041;-61
2022/11/10 07:52:30;;;;;;;22.98;14.73;;;10.00;99.90;;;;;;5062574;28;20039;-62
2022/11/10 07:54:56;;;;;;;34.85;15.32;;;10.10;99.90;;;;;;5066718;28;20735;-62
2022/11/10 07:57:21;;;;;;;32.70;13.98;;;10.10;99.90;;;;;;5070501;28;20620;-61
2022/11/10 07:59:47;;;;;;;27.55;14.43;;;10.10;99.90;;;;;;5072959;28;20032;-61
2022/11/10 08:02:12;;;;;;;30.80;14.15;;;10.10;99.90;;;;;;5069274;28;20043;-62
2022/11/10 08:04:38;;;;;;;26.92;14.57;;;10.10;99.90;;;;;;5060157;28;20082;-62
2022/11/10 08:07:04;;;;;;;30.33;13.40;;;10.20;99.90;;;;;;5070633;28;20040;-61
2022/11/10 08:09:29;;;;;;;26.65;12.75;;;10.20;99.90;;;;;;5064103;28;20143;-61
2022/11/10 08:11:55;;;;;;;25.30;12.20;;;10.20;99.90;;;;;;5065799;28;20747;-62
2022/11/10 08:14:21;;;;;;;26.77;11.60;;;10.20;99.90;;;;;;5061385;28;20037;-61
2022/11/10 08:16:47;;;;;;;26.65;11.93;;;10.30;99.90;;;;;;5066675;28;20068;-62
2022/11/10 08:19:12;;;;;;;30.30;11.50;;;10.20;99.90;;;;;;5063967;28;20068;-61
2022/11/10 08:21:38;;;;;;;25.50;11.75;;;10.30;99.90;;;;;;5066799;28;20044;-61
2022/11/10 08:24:04;;;;;;;26.83;11.10;;;10.30;99.90;;;;;;5058328;28;20045;-61
2022/11/10 08:26:29;;;;;;;32.88;10.63;;;10.20;99.90;;;;;;5061260;28;20400;-62
2022/11/10 08:28:55;;;;;;;28.90;11.13;;;10.20;99.90;;;;;;5064676;28;20044;-61
2022/11/10 08:31:20;;;;;;;29.50;11.07;;;10.30;99.90;;;;;;5066146;28;20054;-60
2022/11/10 08:33:47;;;;;;;25.90;9.98;;;10.40;99.90;;;;;;5076111;28;20036;-61
2022/11/10 08:36:13;;;;;;;22.20;10.95;;;10.40;99.90;;;;;;5058190;28;20124;-61
2022/11/10 08:38:38;;;;;;;20.02;8.68;;;10.50;99.90;;;;;;5074483;28;20111;-61
2022/11/10 08:41:04;;;;;;;26.02;9.20;;;10.60;99.90;;;;;;5076061;28;20446;-61
2022/11/10 08:43:30;;;;;;;23.65;10.07;;;10.70;99.90;;;;;;5076155;28;20048;-61
2022/11/10 08:45:55;;;;;;;21.85;9.30;;;10.70;99.90;;;;;;5075872;28;20071;-61
2022/11/10 08:48:22;;;;;;;28.05;9.25;;;10.80;99.90;;;;;;5075827;28;20052;-61
2022/11/10 08:50:48;;;;;;;22.75;9.32;;;11.00;99.90;;;;;;5069368;28;20067;-62
2022/11/10 08:53:16;;;;;;;19.70;8.32;;;11.00;99.90;;;;;;5076130;28;20068;-62
2022/11/10 08:55:43;;;;;;;20.73;8.30;;;11.00;99.90;;;;;;5075009;28;20048;-62
2022/11/10 08:58:16;;;;;;;22.63;9.05;;;11.20;99.90;;;;;;5072991;28;20083;-62
2022/11/10 09:00:42;;;;;;;18.33;8.48;;;11.30;99.90;;;;;;5075630;28;20511;-61
2022/11/10 09:03:15;;;;;;;19.42;8.50;;;11.30;99.90;;;;;;5074217;28;20037;-61
2022/11/10 09:05:42;;;;;;;22.17;8.00;;;11.30;99.90;;;;;;5084487;28;20079;-62
2022/11/10 09:08:08;;;;;;;20.35;8.35;;;11.40;99.90;;;;;;5081158;28;20052;-62
2022/11/10 09:10:36;;;;;;;20.15;7.97;;;11.50;99.90;;;;;;5075552;28;20040;-60
2022/11/10 09:13:03;;;;;;;21.20;7.72;;;11.50;99.90;;;;;;5073456;28;20044;-61
2022/11/10 09:15:30;;;;;;;19.95;7.45;;;11.50;99.90;;;;;;5075231;28;20120;-61
2022/11/10 09:17:59;;;;;;;18.35;7.03;;;11.60;99.90;;;;;;5075652;28;20170;-61
2022/11/10 09:20:26;;;;;;;20.83;7.15;;;11.50;99.90;;;;;;5075413;28;20090;-61
2022/11/10 09:22:52;;;;;;;24.17;7.07;;;11.50;99.90;;;;;;5075482;28;20129;-61
2022/11/10 09:25:18;;;;;;;28.00;7.90;;;11.60;99.90;;;;;;5075278;28;20076;-62
2022/11/10 09:27:44;;;;;;;19.98;6.65;;;11.60;99.90;;;;;;5072777;28;20490;-61
2022/11/10 09:30:10;;;;;;;23.67;6.93;;;11.70;99.90;;;;;;5070202;28;20037;-60
2022/11/10 09:32:35;;;;;;;18.95;6.18;;;11.70;99.90;;;;;;5073808;28;20049;-61
2022/11/10 09:35:02;;;;;;;22.55;5.85;;;11.80;99.90;;;;;;5075480;28;20033;-61
2022/11/10 09:37:27;;;;;;;16.45;5.93;;;11.80;99.90;;;;;;5074979;28;20076;-61
2022/11/10 09:39:53;;;;;;;19.70;5.75;;;11.90;99.90;;;;;;5081548;28;20127;-61
2022/11/10 09:42:38;;;;;;;18.67;5.47;;;12.00;99.90;;;;;;5073926;28;20052;-61
2022/11/10 09:45:31;;;;;;;16.08;4.80;;;12.10;99.90;;;;;;5072647;28;20045;-61
2022/11/10 09:48:03;;;;;;;19.88;5.25;;;12.20;99.90;;;;;;5069503;28;20065;-62
2022/11/10 09:50:43;;;;;;;15.15;4.22;;;12.20;99.90;;;;;;5068033;28;20432;-62
2022/11/10 09:53:34;;;;;;;19.55;5.88;;;12.30;99.90;;;;;;5075354;28;20048;-61
2022/11/10 09:56:04;;;;;;;17.25;4.57;;;12.30;99.90;;;;;;5055161;28;20052;-62
2022/11/10 09:58:47;;;;;;;14.73;4.25;;;12.30;99.90;;;;;;5074820;28;20045;-61
2022/11/10 10:01:45;;;;;;;14.82;4.38;;;12.30;99.90;;;;;;5073579;28;20119;-61
2022/11/10 10:04:48;;;;;;;16.63;4.25;;;12.40;99.90;;;;;;5051059;28;20044;-61
2022/11/10 10:07:29;;;;;;;15.85;4.15;;;12.40;99.90;;;;;;5061799;28;20036;-64
2022/11/10 10:10:10;;;;;;;15.88;4.13;;;12.60;99.90;;;;;;5070374;28;20119;-61
2022/11/10 10:12:45;;;;;;;13.23;4.20;;;12.70;99.90;;;;;;5069741;28;20133;-61
2022/11/10 10:15:30;;;;;;;15.15;3.72;;;12.80;99.90;;;;;;5074480;28;20048;-61
2022/11/10 10:18:14;;;;;;;16.60;4.00;;;12.90;99.90;;;;;;5073512;28;20044;-62
2022/11/10 10:21:04;;;;;;;16.40;4.00;;;13.00;99.90;;;;;;5066544;28;20045;-62
2022/11/10 10:23:46;;;;;;;20.38;4.30;;;13.20;99.90;;;;;;5062256;28;20052;-62
2022/11/10 10:26:18;;;;;;;19.55;4.45;;;13.20;99.90;;;;;;5063940;28;20048;-62
2022/11/10 10:28:46;;;;;;;14.18;3.92;;;13.30;99.90;;;;;;5063123;28;20048;-61
2022/11/10 10:31:19;;;;;;;14.93;4.63;;;13.30;99.90;;;;;;5068404;28;20040;-62
2022/11/10 10:33:46;;;;;;;18.70;4.57;;;13.40;99.90;;;;;;5067781;28;20048;-61
2022/11/10 10:36:26;;;;;;;13.63;4.18;;;13.40;99.90;;;;;;5065331;28;20036;-61
2022/11/10 10:39:06;;;;;;;22.00;5.30;;;13.50;99.90;;;;;;5069992;28;20051;-62
2022/11/10 10:41:35;;;;;;;15.77;4.32;;;13.60;99.90;;;;;;5066603;28;20189;-61
2022/11/10 10:44:08;;;;;;;16.40;4.60;;;13.80;99.90;;;;;;5068665;28;20044;-62
2022/11/10 10:46:44;;;;;;;12.98;4.65;;;13.80;99.90;;;;;;5064039;28;20062;-62
2022/11/10 10:49:36;;;;;;;15.32;4.38;;;13.70;99.90;;;;;;5062864;28;20139;-62
2022/11/10 10:52:04;;;;;;;15.82;4.53;;;13.70;99.90;;;;;;5064377;28;20079;-60
2022/11/10 10:54:32;;;;;;;14.38;3.78;;;13.60;99.90;;;;;;5071279;28;20037;-61
2022/11/10 10:57:14;;;;;;;17.98;4.70;;;13.60;99.90;;;;;;5068900;28;20075;-61
2022/11/10 10:59:40;;;;;;;21.30;4.80;;;13.60;99.90;;;;;;5068512;28;20051;-62
2022/11/10 11:02:22;;;;;;;17.50;4.85;;;13.70;99.90;;;;;;5062143;28;20053;-61
2022/11/10 11:04:48;;;;;;;14.20;4.53;;;13.70;99.90;;;;;;5067959;28;20420;-62
2022/11/10 11:07:24;;;;;;;18.85;4.60;;;13.60;99.90;;;;;;5068741;28;20114;-61
2022/11/10 11:09:49;;;;;;;23.17;5.38;;;13.40;99.90;;;;;;5068039;28;20139;-61
2022/11/10 11:12:19;;;;;;;18.00;4.95;;;13.40;99.90;;;;;;5069449;28;20128;-63
2022/11/10 11:14:45;;;;;;;16.05;4.78;;;13.30;99.90;;;;;;5069896;28;20136;-63
2022/11/10 11:17:20;;;;;;;19.67;4.85;;;13.30;99.90;;;;;;5066575;28;20130;-60
2022/11/10 11:19:46;;;;;;;16.48;5.05;;;13.40;99.90;;;;;;5069005;28;20501;-62
2022/11/10 11:22:47;;;;;;;16.58;4.15;;;13.40;99.90;;;;;;5066034;28;20119;-62
2022/11/10 11:25:41;;;;;;;14.52;4.43;;;13.60;99.90;;;;;;5065305;28;20619;-62
2022/11/10 11:28:30;;;;;;;17.48;4.53;;;13.50;99.90;;;;;;5062913;28;20041;-61
2022/11/10 11:31:28;;;;;;;17.70;4.43;;;13.70;99.90;;;;;;5064361;28;20496;-62
2022/11/10 11:34:21;;;;;;;18.85;4.53;;;13.80;99.90;;;;;;5059204;28;20502;-62
2022/11/10 11:37:06;;;;;;;18.88;4.85;;;13.90;99.90;;;;;;5061616;28;20536;-61
2022/11/10 11:39:49;;;;;;;18.00;4.28;;;14.10;99.90;;;;;;5069172;28;20055;-65
2022/11/10 11:42:36;;;;;;;14.10;4.60;;;14.20;99.90;;;;;;5058680;28;20473;-61
2022/11/10 11:45:35;;;;;;;18.63;4.07;;;14.30;99.90;;;;;;5062521;28;20044;-61
2022/11/10 11:48:18;;;;;;;15.60;3.40;;;14.50;99.90;;;;;;5065652;28;20076;-61
2022/11/10 11:50:56;;;;;;;14.50;3.28;;;14.70;99.90;;;;;;5064642;28;20046;-61
2022/11/10 11:53:45;;;;;;;13.60;3.50;;;15.00;99.90;;;;;;5063213;28;20401;-60
2022/11/10 11:56:40;;;;;;;12.98;3.25;;;15.10;99.90;;;;;;5070460;28;20039;-61
2022/11/10 11:59:42;;;;;;;18.05;4.60;;;15.00;99.90;;;;;;5068749;28;20546;-61
2022/11/10 12:02:26;;;;;;;16.98;3.30;;;15.00;99.90;;;;;;5070611;28;20044;-61
2022/11/10 12:05:00;;;;;;;17.02;3.58;;;15.00;99.90;;;;;;5066709;28;20067;-60
2022/11/10 12:07:46;;;;;;;17.67;3.35;;;15.00;99.90;;;;;;5071769;28;20465;-61
2022/11/10 12:10:35;;;;;;;17.15;3.72;;;14.90;99.90;;;;;;5068131;28;20044;-60
2022/11/10 12:13:26;;;;;;;13.38;3.45;;;14.90;99.90;;;;;;5071104;28;21153;-61
2022/11/10 12:15:58;;;;;;;15.90;3.33;;;14.90;99.90;;;;;;5067690;28;20064;-61
2022/11/10 12:18:28;;;;;;;18.20;3.65;;;14.90;99.90;;;;;;5068720;28;22656;-61
2022/11/10 12:21:15;;;;;;;20.10;3.75;;;14.90;99.90;;;;;;5068186;28;20079;-60
2022/11/10 12:24:07;;;;;;;15.70;3.10;;;14.90;99.90;;;;;;5071338;28;20047;-61
2022/11/10 12:26:45;;;;;;;13.90;3.55;;;14.90;99.90;;;;;;5064857;28;20057;-60
2022/11/10 12:29:32;;;;;;;18.98;3.85;;;14.90;99.90;;;;;;5068725;28;20409;-60
2022/11/10 12:32:22;;;;;;;18.58;3.75;;;14.90;99.90;;;;;;5069593;28;20037;-62
2022/11/10 12:34:57;;;;;;;16.75;3.58;;;14.90;99.90;;;;;;5069342;28;20044;-61
2022/11/10 12:37:43;;;;;;;15.32;3.47;;;14.90;99.90;;;;;;5068534;28;20040;-59
2022/11/10 12:40:16;;;;;;;19.52;4.05;;;14.80;99.90;;;;;;5069071;28;20489;-59
2022/11/10 12:42:46;;;;;;;11.80;3.00;;;14.80;99.90;;;;;;5069502;28;20040;-60
2022/11/10 12:45:36;;;;;;;12.18;2.95;;;14.70;99.90;;;;;;5069466;28;20123;-60
2022/11/10 12:48:03;;;;;;;15.48;2.80;;;14.70;99.90;;;;;;5068319;28;20056;-60
2022/11/10 12:50:37;;;;;;;11.05;2.60;;;14.80;99.90;;;;;;5070339;28;20044;-60
2022/11/10 12:53:32;;;;;;;14.82;2.67;;;14.80;99.90;;;;;;5069616;28;20500;-60
2022/11/10 12:56:24;;;;;;;13.35;2.92;;;14.60;99.90;;;;;;5067830;28;20132;-61
2022/11/10 12:59:18;;;;;;;15.27;3.13;;;14.50;99.90;;;;;;5030713;28;20061;-61
2022/11/10 13:01:47;;;;;;;17.25;2.83;;;14.40;99.90;;;;;;5046163;28;20047;-60
2022/11/10 13:04:15;;;;;;;15.50;2.63;;;14.40;99.90;;;;;;5047279;28;20253;-60